Time;durP1;ratioP1;P1;durP2;ratioP2;P2;SDS_P1;SDS_P2;PMS_P1;PMS_P2;Temp;Humidity;BMP_temperature;BMP_pressure;BME280_temperature;BME280_humidity;BME280_pressure;Samples;Min_cycle;Max_cycle;Signal;HPM_P1;HPM_P2
2022/10/02 00:02:04;;;;;;;46.47;6.95;;;;;;;14.34;100.00;101499.81;5276110;28;20043;-72
2022/10/02 00:04:47;;;;;;;45.58;5.93;;;;;;;14.33;100.00;101503.53;5270965;28;20024;-74
2022/10/02 00:07:23;;;;;;;43.80;5.85;;;;;;;14.31;100.00;101509.13;5252884;28;20027;-73
2022/10/02 00:09:59;;;;;;;50.20;6.47;;;;;;;14.35;100.00;101515.00;5285117;28;20032;-74
2022/10/02 00:12:30;;;;;;;41.60;6.07;;;;;;;14.33;100.00;101506.25;5275606;28;20027;-73
2022/10/02 00:15:12;;;;;;;29.17;4.72;;;;;;;14.34;100.00;101516.84;5266410;27;20500;-74
2022/10/02 00:17:46;;;;;;;47.65;5.88;;;;;;;14.34;100.00;101519.56;5267229;28;20028;-73
2022/10/02 00:20:21;;;;;;;39.33;5.13;;;;;;;14.36;100.00;101527.50;5266962;28;20037;-73
2022/10/02 00:23:10;;;;;;;36.13;5.13;;;;;;;14.36;100.00;101528.34;5267176;28;20496;-74
2022/10/02 00:25:58;;;;;;;34.08;4.97;;;;;;;14.38;100.00;101529.00;5266126;28;20055;-73
2022/10/02 00:28:57;;;;;;;39.97;6.13;;;;;;;14.41;100.00;101538.63;5266653;28;20147;-73
2022/10/02 00:32:05;;;;;;;40.78;4.85;;;;;;;14.46;100.00;101536.22;5267084;28;20024;-73
2022/10/02 00:34:48;;;;;;;42.85;6.00;;;;;;;14.49;100.00;101534.03;5263046;28;20393;-74
2022/10/02 00:37:45;;;;;;;37.00;7.30;;;;;;;14.56;100.00;101534.19;5256409;28;20108;-73
2022/10/02 00:40:57;;;;;;;34.95;5.32;;;;;;;14.54;100.00;101535.38;5282700;28;20114;-73
2022/10/02 00:43:46;;;;;;;41.95;6.70;;;;;;;14.52;100.00;101529.31;5287838;28;20020;-73
2022/10/02 00:46:25;;;;;;;46.38;6.75;;;;;;;14.50;100.00;101529.47;5275488;28;20032;-73
2022/10/02 00:49:06;;;;;;;44.63;6.28;;;;;;;14.51;100.00;101520.38;5286646;28;20104;-73
2022/10/02 00:51:49;;;;;;;52.28;6.43;;;;;;;14.50;100.00;101524.06;5287616;28;20027;-73
2022/10/02 00:54:48;;;;;;;40.80;6.03;;;;;;;14.49;100.00;101520.53;5271829;28;20028;-74
2022/10/02 00:57:43;;;;;;;39.05;5.85;;;;;;;14.47;100.00;101516.31;5257497;28;20036;-74
2022/10/02 01:00:19;;;;;;;44.95;6.32;;;;;;;14.46;100.00;101518.16;5266712;28;20350;-73
2022/10/02 01:03:17;;;;;;;45.83;6.65;;;;;;;14.50;100.00;101516.81;5258875;28;20107;-73
2022/10/02 01:05:48;;;;;;;42.78;5.97;;;;;;;14.56;100.00;101528.78;5287014;28;20489;-74
2022/10/02 01:08:20;;;;;;;34.75;5.18;;;;;;;14.56;100.00;101530.63;5268660;28;20500;-73
2022/10/02 01:10:52;;;;;;;38.80;5.28;;;;;;;14.56;100.00;101531.50;5278817;28;20019;-74
2022/10/02 01:13:43;;;;;;;42.53;6.07;;;;;;;14.57;100.00;101538.56;5255049;28;20028;-71
2022/10/02 01:16:15;;;;;;;43.50;5.50;;;;;;;14.49;100.00;101536.72;5265389;28;20028;-72
2022/10/02 01:18:46;;;;;;;40.38;5.65;;;;;;;14.40;100.00;101528.81;5266024;28;20023;-74
2022/10/02 01:21:37;;;;;;;31.02;4.85;;;;;;;14.33;100.00;101523.28;5265553;28;20076;-73
2022/10/02 01:24:24;;;;;;;51.63;6.97;;;;;;;14.27;100.00;101526.69;5265350;28;20393;-74
2022/10/02 01:27:02;;;;;;;40.88;5.72;;;;;;;14.23;100.00;101528.03;5270060;28;20107;-74
2022/10/02 01:29:37;;;;;;;35.55;6.65;;;;;;;14.21;100.00;101530.09;5265911;28;20023;-74
2022/10/02 01:32:28;;;;;;;42.88;7.13;;;;;;;14.17;100.00;101529.56;5269416;28;20380;-74
2022/10/02 01:34:59;;;;;;;33.80;4.82;;;;;;;14.13;100.00;101532.78;5286476;27;20489;-74
2022/10/02 01:37:34;;;;;;;39.50;6.55;;;;;;;14.11;100.00;101532.13;5273326;27;20019;-75
2022/10/02 01:40:08;;;;;;;38.00;4.60;;;;;;;14.04;100.00;101531.97;5273202;28;20016;-74
2022/10/02 01:42:39;;;;;;;45.30;5.57;;;;;;;14.02;100.00;101538.56;5278408;28;20019;-74
2022/10/02 01:45:10;;;;;;;38.40;6.38;;;;;;;14.00;100.00;101526.06;5263793;28;20161;-75
2022/10/02 01:47:54;;;;;;;36.95;5.85;;;;;;;14.00;100.00;101528.75;5265064;28;20354;-75
2022/10/02 01:50:38;;;;;;;40.92;5.32;;;;;;;14.00;100.00;101523.34;5271047;28;20557;-75
2022/10/02 01:53:18;;;;;;;45.97;5.72;;;;;;;13.99;100.00;101521.69;5283538;28;20482;-74
2022/10/02 01:56:02;;;;;;;52.53;6.60;;;;;;;13.99;100.00;101518.97;5275447;28;20043;-75
2022/10/02 01:58:51;;;;;;;53.10;6.07;;;;;;;13.99;100.00;101516.28;5272577;28;20504;-75
2022/10/02 02:01:30;;;;;;;49.75;6.82;;;;;;;14.02;100.00;101514.28;5287723;28;20289;-73
2022/10/02 02:04:27;;;;;;;37.13;5.60;;;;;;;13.98;100.00;101508.38;5276229;28;20028;-74
2022/10/02 02:07:09;;;;;;;45.53;6.10;;;;;;;14.02;100.00;101542.09;5260586;28;20023;-74
2022/10/02 02:10:05;;;;;;;55.60;7.85;;;;;;;14.15;100.00;101550.47;5282634;28;20380;-74
2022/10/02 02:12:36;;;;;;;41.72;5.70;;;;;;;14.11;100.00;101546.47;5262100;28;20040;-74
2022/10/02 02:15:16;;;;;;;42.60;7.95;;;;;;;14.09;100.00;101547.63;5273107;28;20111;-74
2022/10/02 02:17:57;;;;;;;42.15;8.18;;;;;;;14.11;100.00;101551.84;5281075;28;20545;-74
2022/10/02 02:20:33;;;;;;;36.35;7.45;;;;;;;14.08;100.00;101544.09;5277663;28;20015;-74
2022/10/02 02:23:10;;;;;;;51.90;8.50;;;;;;;14.09;100.00;101551.16;5285980;28;20092;-75
2022/10/02 02:25:44;;;;;;;40.80;8.52;;;;;;;14.14;100.00;101559.59;5284881;28;20103;-75
2022/10/02 02:28:19;;;;;;;42.95;7.80;;;;;;;14.15;100.00;101553.19;5266473;28;20024;-75
2022/10/02 02:30:52;;;;;;;47.13;8.70;;;;;;;14.14;100.00;101551.50;5265290;28;20019;-75
2022/10/02 02:33:27;;;;;;;48.20;6.85;;;;;;;14.12;100.00;101544.59;5276239;28;20027;-75
2022/10/02 02:36:02;;;;;;;51.53;6.60;;;;;;;14.06;100.00;101543.44;5263431;28;20024;-75
2022/10/02 02:38:41;;;;;;;39.55;6.80;;;;;;;14.05;100.00;101549.81;5273057;28;20054;-75
2022/10/02 02:41:15;;;;;;;39.88;5.90;;;;;;;14.07;100.00;101550.50;5276580;27;20115;-73
2022/10/02 02:43:58;;;;;;;34.38;5.80;;;;;;;14.07;100.00;101549.69;5268530;28;20097;-74
2022/10/02 02:47:05;;;;;;;43.47;6.25;;;;;;;14.08;100.00;101556.75;5271183;28;20537;-75
2022/10/02 02:49:40;;;;;;;38.20;6.55;;;;;;;14.07;100.00;101555.91;5267616;28;20031;-74
2022/10/02 02:52:17;;;;;;;34.85;7.07;;;;;;;14.08;100.00;101556.75;5272246;28;20028;-74
2022/10/02 02:54:56;;;;;;;42.22;6.75;;;;;;;14.06;100.00;101561.50;5280086;28;20023;-74
2022/10/02 02:57:32;;;;;;;29.02;5.45;;;;;;;14.05;100.00;101555.22;5285692;27;20545;-74
2022/10/02 03:00:04;;;;;;;40.35;6.07;;;;;;;14.05;100.00;101557.09;5267780;28;20076;-74
2022/10/02 03:02:35;;;;;;;43.15;5.57;;;;;;;14.03;100.00;101569.91;5258767;28;20487;-74
2022/10/02 03:05:14;;;;;;;37.55;6.28;;;;;;;13.99;100.00;101569.41;5261527;28;20110;-74
2022/10/02 03:07:56;;;;;;;32.50;5.53;;;;;;;13.98;100.00;101573.13;5263575;28;20048;-74
2022/10/02 03:10:45;;;;;;;36.97;5.80;;;;;;;13.99;100.00;101559.44;5264342;28;20024;-74
2022/10/02 03:13:24;;;;;;;34.33;4.55;;;;;;;13.94;100.00;101563.69;5258625;28;20119;-75
2022/10/02 03:16:26;;;;;;;44.90;5.70;;;;;;;13.94;100.00;101567.22;5271241;28;20027;-75
2022/10/02 03:19:16;;;;;;;29.25;5.25;;;;;;;13.92;100.00;101576.50;5285284;28;20449;-75
2022/10/02 03:22:26;;;;;;;33.92;4.13;;;;;;;13.89;100.00;101572.28;5267099;28;20028;-74
2022/10/02 03:25:12;;;;;;;42.25;6.45;;;;;;;13.88;100.00;101570.59;5250577;28;20032;-74
2022/10/02 03:27:56;;;;;;;40.20;6.80;;;;;;;13.87;100.00;101565.38;5267996;28;20020;-75
2022/10/02 03:30:27;;;;;;;25.05;3.80;;;;;;;13.86;100.00;101569.94;5263542;28;20036;-75
2022/10/02 03:32:59;;;;;;;29.55;4.45;;;;;;;13.87;100.00;101560.00;5269410;28;20040;-75
2022/10/02 03:35:31;;;;;;;28.08;4.55;;;;;;;13.85;100.00;101562.00;5264083;28;20693;-75
2022/10/02 03:38:05;;;;;;;26.80;3.72;;;;;;;13.87;100.00;101566.22;5263319;28;20111;-76
2022/10/02 03:40:36;;;;;;;30.05;4.35;;;;;;;13.84;100.00;101568.41;5268708;28;20396;-75
2022/10/02 03:43:08;;;;;;;26.45;4.47;;;;;;;13.86;100.00;101571.81;5286503;28;20024;-74
2022/10/02 03:45:39;;;;;;;27.75;4.30;;;;;;;13.85;100.00;101570.09;5268282;27;20020;-74
2022/10/02 03:48:09;;;;;;;34.67;4.72;;;;;;;13.84;100.00;101571.09;5281645;28;20072;-74
2022/10/02 03:50:40;;;;;;;35.35;4.82;;;;;;;13.80;100.00;101559.81;5289208;28;20047;-75
2022/10/02 03:53:17;;;;;;;31.80;4.47;;;;;;;13.79;100.00;101562.69;5285242;28;20027;-75
2022/10/02 03:55:54;;;;;;;32.83;5.82;;;;;;;13.80;100.00;101562.50;5287643;28;20143;-74
2022/10/02 03:58:25;;;;;;;30.73;4.45;;;;;;;13.79;100.00;101562.69;5288994;28;20024;-74
2022/10/02 04:00:55;;;;;;;24.52;4.57;;;;;;;13.78;100.00;101561.00;5277059;28;20026;-75
2022/10/02 04:03:49;;;;;;;26.05;4.53;;;;;;;13.76;100.00;101569.28;5271964;28;20028;-74
2022/10/02 04:06:25;;;;;;;18.08;4.15;;;;;;;13.73;100.00;101559.66;5287763;28;20123;-74
2022/10/02 04:09:20;;;;;;;21.30;3.90;;;;;;;13.72;100.00;101557.97;5278314;28;20103;-74
2022/10/02 04:12:12;;;;;;;28.30;4.20;;;;;;;13.71;100.00;101561.69;5271374;28;20039;-74
2022/10/02 04:14:46;;;;;;;33.22;4.10;;;;;;;13.69;100.00;101566.41;5269152;28;20099;-74
2022/10/02 04:17:35;;;;;;;20.50;3.45;;;;;;;13.69;100.00;101568.25;5280410;28;20027;-75
2022/10/02 04:20:13;;;;;;;30.10;3.90;;;;;;;13.69;100.00;101581.72;5279714;28;20024;-75
2022/10/02 04:23:02;;;;;;;29.58;5.88;;;;;;;13.67;100.00;101589.16;5284550;28;20047;-74
2022/10/02 04:25:38;;;;;;;28.00;4.22;;;;;;;13.68;100.00;101590.84;5287504;27;20032;-74
2022/10/02 04:28:20;;;;;;;27.33;3.95;;;;;;;13.67;100.00;101589.16;5270684;28;20025;-76
2022/10/02 04:30:52;;;;;;;20.08;3.88;;;;;;;13.62;100.00;101589.66;5271152;28;20067;-76
2022/10/02 04:33:23;;;;;;;22.13;3.15;;;;;;;13.64;100.00;101593.03;5281400;28;20035;-75
2022/10/02 04:36:25;;;;;;;21.35;3.33;;;;;;;13.61;100.00;101598.75;5271266;28;20028;-74
2022/10/02 04:39:04;;;;;;;28.10;4.03;;;;;;;13.55;100.00;101588.63;5280678;28;20020;-74
2022/10/02 04:41:56;;;;;;;19.25;3.38;;;;;;;13.54;100.00;101586.94;5279566;28;20032;-74
2022/10/02 04:44:33;;;;;;;15.65;3.08;;;;;;;13.55;100.00;101603.97;5277830;28;20959;-74
2022/10/02 04:47:25;;;;;;;15.73;3.30;;;;;;;13.54;100.00;101616.59;5267084;28;20036;-75
2022/10/02 04:50:16;;;;;;;16.88;2.88;;;;;;;13.50;100.00;101619.78;5280692;28;20024;-73
2022/10/02 04:53:11;;;;;;;13.98;3.70;;;;;;;13.48;100.00;101610.03;5288074;28;20092;-73
2022/10/02 04:55:57;;;;;;;19.58;3.53;;;;;;;13.46;100.00;101611.22;5252973;28;20028;-72
2022/10/02 04:58:55;;;;;;;21.40;3.78;;;;;;;13.46;100.00;101616.63;5284629;28;20073;-72
2022/10/02 05:01:43;;;;;;;26.95;5.10;;;;;;;13.42;100.00;101604.47;5288125;28;20063;-71
2022/10/02 05:04:22;;;;;;;18.33;2.90;;;;;;;13.42;100.00;101615.25;5271029;28;20023;-71
2022/10/02 05:07:08;;;;;;;13.70;3.65;;;;;;;13.42;100.00;101612.56;5287772;27;20035;-72
2022/10/02 05:09:57;;;;;;;;;;;;;;;13.40;100.00;101609.16;5285481;28;20019;-71
2022/10/02 05:13:05;;;;;;;23.15;3.03;;;;;;;13.37;100.00;101609.53;5279683;28;19970;-72
2022/10/02 05:16:26;;;;;;;20.80;3.22;;;;;;;13.32;100.00;101607.31;5286826;28;20022;-72
2022/10/02 05:19:23;;;;;;;17.52;3.28;;;;;;;13.33;100.00;101610.84;5269456;28;20028;-72
2022/10/02 05:22:25;;;;;;;17.70;3.22;;;;;;;13.32;100.00;101615.41;5287788;28;20420;-72
2022/10/02 05:25:28;;;;;;;24.33;3.40;;;;;;;13.31;100.00;101620.97;5287120;28;20135;-72
2022/10/02 05:28:10;;;;;;;26.50;5.05;;;;;;;13.30;100.00;101625.50;5263737;28;20097;-72
2022/10/02 05:30:44;;;;;;;18.42;4.18;;;;;;;13.30;100.00;101628.19;5266259;28;20290;-72
2022/10/02 05:33:32;;;;;;;22.35;3.28;;;;;;;13.29;100.00;101634.59;5276544;28;20039;-72
2022/10/02 05:36:23;;;;;;;26.80;3.85;;;;;;;13.29;100.00;101633.75;5270120;28;20024;-72
2022/10/02 05:39:12;;;;;;;24.27;3.30;;;;;;;13.28;100.00;101634.75;5283894;28;20381;-72
2022/10/02 05:42:13;;;;;;;21.80;4.85;;;;;;;13.28;100.00;101640.16;5273138;28;20032;-73
2022/10/02 05:44:52;;;;;;;24.65;3.90;;;;;;;13.20;100.00;101644.50;5277545;28;20031;-72
2022/10/02 05:47:43;;;;;;;21.98;4.60;;;;;;;13.20;100.00;101649.88;5280123;28;20038;-72
2022/10/02 05:50:17;;;;;;;24.92;3.70;;;;;;;13.14;100.00;101642.41;5269207;28;20028;-72
2022/10/02 05:52:58;;;;;;;20.77;2.95;;;;;;;13.18;100.00;101646.47;5287021;28;20031;-72
2022/10/02 05:55:35;;;;;;;25.00;3.53;;;;;;;13.16;100.00;101634.19;5270362;28;20100;-73
2022/10/02 05:58:18;;;;;;;16.75;3.53;;;;;;;13.12;100.00;101644.44;5251333;28;20025;-72
2022/10/02 06:01:13;;;;;;;13.77;3.63;;;;;;;13.14;100.00;101657.75;5273581;28;20035;-72
2022/10/02 06:03:50;;;;;;;16.40;3.42;;;;;;;13.18;100.00;101667.19;5256697;28;20024;-72
2022/10/02 06:06:46;;;;;;;19.83;2.92;;;;;;;13.15;100.00;101656.72;5276943;28;20028;-72
2022/10/02 06:09:32;;;;;;;16.83;3.63;;;;;;;13.15;100.00;101654.91;5264530;28;20619;-72
2022/10/02 06:12:13;;;;;;;17.42;3.42;;;;;;;13.13;100.00;101656.06;5287859;28;20042;-72
2022/10/02 06:14:57;;;;;;;20.52;2.97;;;;;;;13.13;100.00;101662.28;5281119;28;20515;-72
2022/10/02 06:17:43;;;;;;;24.80;3.25;;;;;;;13.14;100.00;101660.44;5278815;28;20358;-73
2022/10/02 06:20:35;;;;;;;30.70;3.90;;;;;;;13.12;100.00;101662.47;5263336;28;20235;-72
2022/10/02 06:23:26;;;;;;;13.85;3.60;;;;;;;13.11;100.00;101661.63;5265021;28;20440;-72
2022/10/02 06:26:10;;;;;;;23.17;3.45;;;;;;;13.14;100.00;101666.66;5267597;28;20019;-72
2022/10/02 06:28:49;;;;;;;28.05;3.65;;;;;;;13.15;100.00;101675.59;5276931;28;20638;-72
2022/10/02 06:31:42;;;;;;;23.83;3.67;;;;;;;13.13;100.00;101680.31;5285223;28;20027;-72
2022/10/02 06:34:13;;;;;;;24.15;3.40;;;;;;;13.14;100.00;101677.44;5281417;28;20438;-72
2022/10/02 06:37:19;;;;;;;19.63;3.85;;;;;;;13.15;100.00;101671.06;5252057;28;20028;-72
2022/10/02 06:40:16;;;;;;;20.17;3.08;;;;;;;13.21;100.00;101686.63;5254944;28;20435;-73
2022/10/02 06:42:51;;;;;;;22.83;4.10;;;;;;;13.27;100.00;101695.06;5261781;28;20040;-72
2022/10/02 06:45:34;;;;;;;21.05;3.55;;;;;;;13.29;100.00;101696.56;5264121;28;20019;-72
2022/10/02 06:48:12;;;;;;;25.17;5.10;;;;;;;13.34;100.00;101699.59;5264972;28;20154;-72
2022/10/02 06:50:45;;;;;;;17.33;3.85;;;;;;;13.34;100.00;101694.22;5263945;28;20058;-72
2022/10/02 06:53:27;;;;;;;18.95;3.30;;;;;;;13.33;100.00;101697.94;5276491;28;20024;-72
2022/10/02 06:56:25;;;;;;;16.70;3.15;;;;;;;13.33;100.00;101707.88;5284687;28;20035;-72
2022/10/02 06:59:18;;;;;;;20.63;3.42;;;;;;;13.37;100.00;101720.03;5250585;28;20090;-72
2022/10/02 07:01:51;;;;;;;13.48;3.70;;;;;;;13.40;100.00;101720.53;5283467;28;20050;-71
2022/10/02 07:04:47;;;;;;;27.90;4.22;;;;;;;13.44;100.00;101721.03;5255918;28;20032;-72
2022/10/02 07:07:53;;;;;;;19.70;3.40;;;;;;;13.47;100.00;101721.56;5264148;28;20482;-72
2022/10/02 07:10:33;;;;;;;20.40;3.92;;;;;;;13.48;100.00;101714.31;5264086;28;20025;-72
2022/10/02 07:13:18;;;;;;;26.98;4.07;;;;;;;13.57;100.00;101723.28;5254560;28;20030;-72
2022/10/02 07:16:24;;;;;;;26.05;4.05;;;;;;;13.58;100.00;101717.72;5283854;28;20034;-72
2022/10/02 07:19:29;;;;;;;24.27;3.88;;;;;;;13.62;100.00;101718.22;5281790;28;20496;-72
2022/10/02 07:22:31;;;;;;;15.93;3.63;;;;;;;13.68;100.00;101723.81;5278320;28;20036;-72
2022/10/02 07:25:14;;;;;;;20.90;4.07;;;;;;;13.67;100.00;101711.34;5262288;28;20047;-72
2022/10/02 07:28:13;;;;;;;16.75;3.83;;;;;;;13.69;100.00;101705.75;5267254;28;20071;-72
2022/10/02 07:31:03;;;;;;;23.55;4.78;;;;;;;13.70;100.00;101704.75;5264806;28;20044;-71
2022/10/02 07:33:57;;;;;;;18.00;3.85;;;;;;;13.66;100.00;101701.56;5280494;28;20099;-71
2022/10/02 07:36:50;;;;;;;16.77;3.42;;;;;;;13.72;100.00;101711.69;5266671;28;20021;-72
2022/10/02 07:39:42;;;;;;;18.08;3.17;;;;;;;13.77;100.00;101713.88;5244339;28;20040;-72
2022/10/02 07:42:33;;;;;;;18.83;3.20;;;;;;;13.80;100.00;101732.41;5267953;28;20028;-72
2022/10/02 07:45:27;;;;;;;22.48;3.58;;;;;;;13.83;100.00;101728.56;5267962;28;20040;-72
2022/10/02 07:48:25;;;;;;;24.42;4.28;;;;;;;13.85;100.00;101735.44;5289290;28;20011;-72
2022/10/02 07:51:03;;;;;;;20.38;4.00;;;;;;;13.89;100.00;101738.66;5267716;28;20440;-71
2022/10/02 07:53:48;;;;;;;14.07;2.83;;;;;;;13.92;100.00;101747.28;5280645;28;20023;-72
2022/10/02 07:56:22;;;;;;;15.18;3.28;;;;;;;13.94;100.00;101756.03;5288356;28;20472;-72
2022/10/02 07:59:07;;;;;;;19.77;3.80;;;;;;;14.03;100.00;101742.56;5287660;28;20020;-72
2022/10/02 08:01:40;;;;;;;19.88;3.13;;;;;;;14.09;100.00;101750.00;5288124;28;20062;-72
2022/10/02 08:04:20;;;;;;;17.77;3.38;;;;;;;14.12;100.00;101747.81;5273924;28;20237;-72
2022/10/02 08:07:00;;;;;;;22.92;3.50;;;;;;;14.19;100.00;101756.91;5287082;28;20393;-72
2022/10/02 08:09:47;;;;;;;24.40;3.53;;;;;;;14.34;100.00;101759.78;5288328;28;20055;-72
2022/10/02 08:12:25;;;;;;;14.25;3.00;;;;;;;14.57;100.00;101765.38;5287283;28;20032;-72
2022/10/02 08:14:58;;;;;;;15.35;3.45;;;;;;;14.77;100.00;101776.69;5273968;28;20100;-72
2022/10/02 08:17:38;;;;;;;17.73;2.95;;;;;;;14.92;100.00;101774.97;5288427;28;20424;-72
2022/10/02 08:20:18;;;;;;;20.77;3.25;;;;;;;15.15;100.00;101788.56;5288447;28;20026;-72
2022/10/02 08:22:59;;;;;;;17.30;3.03;;;;;;;15.24;100.00;101794.78;5288271;28;20037;-72
2022/10/02 08:25:44;;;;;;;11.68;2.25;;;;;;;15.11;100.00;101784.53;5287145;28;20447;-72
2022/10/02 08:28:27;;;;;;;9.55;2.20;;;;;;;15.09;100.00;101777.63;5272743;28;20031;-72
2022/10/02 08:30:57;;;;;;;13.98;2.38;;;;;;;14.99;100.00;101778.66;5265034;28;20028;-72
2022/10/02 08:33:30;;;;;;;14.65;3.08;;;;;;;14.96;100.00;101781.72;5267126;28;20034;-73
2022/10/02 08:36:15;;;;;;;13.05;2.58;;;;;;;15.02;100.00;101786.41;5254088;28;20028;-72
2022/10/02 08:38:50;;;;;;;17.33;2.83;;;;;;;15.03;100.00;101784.56;5262280;28;20081;-72
2022/10/02 08:41:26;;;;;;;11.80;2.70;;;;;;;14.97;100.00;101785.25;5266199;28;20089;-73
2022/10/02 08:44:35;;;;;;;14.82;3.13;;;;;;;15.00;100.00;101782.19;5266591;28;20028;-72
2022/10/02 08:47:46;;;;;;;16.95;2.72;;;;;;;15.00;100.00;101784.88;5276992;28;20042;-72
2022/10/02 08:50:53;;;;;;;10.00;1.98;;;;;;;14.96;100.00;101772.72;5259840;28;20032;-72
2022/10/02 08:53:50;;;;;;;15.40;3.30;;;;;;;14.91;100.00;101775.09;5274139;28;20024;-72
2022/10/02 08:56:25;;;;;;;12.48;2.50;;;;;;;14.93;100.00;101781.19;5273240;28;20069;-72
2022/10/02 08:59:25;;;;;;;12.15;2.75;;;;;;;14.98;100.00;101787.78;5270102;28;20047;-72
2022/10/02 09:02:37;;;;;;;7.68;2.30;;;;;;;15.02;100.00;101788.28;5283259;28;20120;-72
2022/10/02 09:05:26;;;;;;;14.15;2.65;;;;;;;15.07;100.00;101795.88;5284735;28;20062;-72
2022/10/02 09:08:32;;;;;;;12.95;2.70;;;;;;;15.05;100.00;101797.88;5287297;28;20026;-72
2022/10/02 09:11:40;;;;;;;11.35;2.50;;;;;;;15.08;100.00;101802.97;5285225;28;20019;-72
2022/10/02 09:14:33;;;;;;;9.38;2.50;;;;;;;15.02;100.00;101810.75;5279036;28;20019;-72
2022/10/02 09:17:42;;;;;;;8.90;2.40;;;;;;;15.00;100.00;101811.91;5277775;28;20027;-72
2022/10/02 09:20:38;;;;;;;13.50;2.78;;;;;;;15.07;100.00;101812.09;5286991;28;20016;-72
2022/10/02 09:23:39;;;;;;;15.88;3.25;;;;;;;15.07;100.00;101802.13;5279218;28;20053;-72
2022/10/02 09:26:17;;;;;;;9.88;3.15;;;;;;;15.05;100.00;101793.31;5285098;28;20035;-72
2022/10/02 09:29:27;;;;;;;8.57;2.80;;;;;;;15.05;100.00;101779.81;5261296;28;20032;-72
2022/10/02 09:32:23;;;;;;;12.45;3.10;;;;;;;15.04;100.00;101791.63;5266419;28;20028;-72
2022/10/02 09:35:29;;;;;;;11.95;2.47;;;;;;;15.06;100.00;101797.72;5279971;28;20031;-72
2022/10/02 09:38:26;;;;;;;5.60;2.15;;;;;;;15.05;100.00;101809.53;5254762;28;20032;-72
2022/10/02 09:41:27;;;;;;;10.70;1.90;;;;;;;15.15;100.00;101821.00;5265248;28;20550;-72
2022/10/02 09:44:23;;;;;;;9.52;2.35;;;;;;;15.09;100.00;101819.00;5284821;28;20149;-72
2022/10/02 09:47:23;;;;;;;9.57;2.63;;;;;;;15.08;100.00;101832.69;5268911;28;20031;-72
2022/10/02 09:50:16;;;;;;;9.82;2.00;;;;;;;15.10;100.00;101839.59;5265306;28;20489;-71
2022/10/02 09:53:10;;;;;;;6.90;2.00;;;;;;;15.09;100.00;101851.41;5265173;28;20024;-72
2022/10/02 09:56:29;;;;;;;10.10;2.75;;;;;;;15.15;100.00;101848.03;5244061;28;20036;-71
2022/10/02 09:59:27;;;;;;;11.98;2.05;;;;;;;15.13;100.00;101844.66;5261706;28;20412;-72
2022/10/02 10:02:16;;;;;;;11.10;2.30;;;;;;;15.13;100.00;101839.25;5265544;28;20024;-72
2022/10/02 10:05:13;;;;;;;3.53;2.40;;;;;;;15.24;100.00;101830.78;5273225;28;20024;-72
2022/10/02 10:08:05;;;;;;;13.85;2.50;;;;;;;15.34;100.00;101837.84;5278646;28;20037;-72
2022/10/02 10:11:17;;;;;;;9.73;2.58;;;;;;;15.56;100.00;101847.91;5264983;28;20043;-72
2022/10/02 10:14:18;;;;;;;8.57;2.10;;;;;;;15.64;100.00;101847.91;5254843;28;20363;-72
2022/10/02 10:17:18;;;;;;;11.07;2.25;;;;;;;15.70;100.00;101844.50;5261617;28;20039;-72
2022/10/02 10:20:10;;;;;;;8.05;2.50;;;;;;;15.68;100.00;101849.25;5287073;27;20523;-72
2022/10/02 10:22:50;;;;;;;6.88;2.67;;;;;;;15.62;100.00;101859.91;5287102;28;20116;-72
2022/10/02 10:25:50;;;;;;;8.60;2.17;;;;;;;15.44;100.00;101858.25;5273577;28;20487;-72
2022/10/02 10:28:58;;;;;;;10.43;5.05;;;;;;;15.36;100.00;101857.44;5266978;28;20053;-71
2022/10/02 10:31:53;;;;;;;6.90;3.05;;;;;;;15.38;100.00;101864.38;5284041;28;20051;-72
2022/10/02 10:34:45;;;;;;;7.50;2.70;;;;;;;15.42;100.00;101862.19;5277701;28;20110;-72
2022/10/02 10:40:24;;;;;;;24.90;13.70;;;;;;;15.44;100.00;101857.44;5285368;28;20027;-72
2022/10/02 10:43:16;;;;;;;18.55;8.23;;;;;;;15.46;100.00;101871.59;5285925;28;20549;-72
2022/10/02 10:46:01;;;;;;;19.20;15.75;;;;;;;15.44;100.00;101877.19;5284856;28;20047;-71
2022/10/02 10:48:42;;;;;;;30.13;14.80;;;;;;;15.42;100.00;101879.25;5284927;28;20077;-72
2022/10/02 10:51:30;;;;;;;20.35;6.60;;;;;;;15.34;100.00;101876.53;5285792;28;20080;-72
2022/10/02 10:54:39;;;;;;;21.40;11.90;;;;;;;15.37;100.00;101873.50;5260875;28;20019;-72
2022/10/02 10:57:16;;;;;;;17.92;7.78;;;;;;;15.37;100.00;101878.06;5285473;28;20543;-72
2022/10/02 11:00:16;;;;;;;11.43;4.05;;;;;;;15.38;100.00;101875.19;5283306;28;20024;-72
2022/10/02 11:03:05;;;;;;;20.17;10.85;;;;;;;15.47;100.00;101884.13;5262248;28;20558;-72
2022/10/02 11:06:21;;;;;;;11.35;4.25;;;;;;;15.53;100.00;101886.13;5260998;28;20461;-72
2022/10/02 11:09:10;;;;;;;11.75;6.25;;;;;;;15.61;100.00;101885.25;5285315;28;20107;-72
2022/10/02 11:11:46;;;;;;;25.00;13.00;;;;;;;15.71;100.00;101892.22;5272018;28;20030;-72
2022/10/02 11:14:52;;;;;;;12.88;6.78;;;;;;;15.70;100.00;101897.75;5284236;28;20059;-72
2022/10/02 11:18:07;;;;;;;10.75;3.30;;;;;;;15.74;100.00;101899.94;5270779;27;20201;-72
2022/10/02 11:21:05;;;;;;;17.25;7.93;;;;;;;15.83;100.00;101897.22;5240638;28;20037;-72
2022/10/02 11:24:04;;;;;;;14.93;6.90;;;;;;;15.99;100.00;101899.84;5240315;28;20478;-72
2022/10/02 11:26:40;;;;;;;14.32;4.55;;;;;;;16.09;100.00;101899.63;5256484;28;20116;-72
2022/10/02 11:29:33;;;;;;;101.25;48.60;;;;;;;16.09;100.00;101905.06;5277654;28;20024;-72
2022/10/02 11:32:21;;;;;;;45.65;24.98;;;;;;;16.05;100.00;101902.69;5271148;28;20035;-72
2022/10/02 11:35:22;;;;;;;14.88;6.35;;;;;;;15.99;100.00;101900.69;5274478;28;20024;-72
2022/10/02 11:38:13;;;;;;;8.43;4.13;;;;;;;15.93;100.00;101898.69;5261146;28;20035;-72
2022/10/02 11:40:44;;;;;;;21.77;14.68;;;;;;;16.00;100.00;101909.66;5271133;28;20066;-72
2022/10/02 11:43:50;;;;;;;12.10;6.60;;;;;;;16.11;100.00;101908.41;5285576;28;20055;-72
2022/10/02 11:46:58;;;;;;;35.70;20.38;;;;;;;16.07;100.00;101905.25;5272465;28;20032;-72
2022/10/02 11:50:13;;;;;;;15.00;5.85;;;;;;;16.13;100.00;101901.81;5263908;28;20036;-72
2022/10/02 11:53:03;;;;;;;9.95;4.80;;;;;;;16.20;100.00;101908.19;5258051;28;20044;-72
2022/10/02 11:55:56;;;;;;;17.50;5.00;;;;;;;16.16;100.00;101914.97;5270996;28;20027;-72
2022/10/02 11:58:40;;;;;;;15.75;5.50;;;;;;;16.18;100.00;101922.94;5239724;28;20040;-73
2022/10/02 12:02:01;;;;;;;13.80;5.32;;;;;;;16.22;100.00;101911.59;5261166;28;20110;-72
2022/10/02 12:04:56;;;;;;;12.82;5.60;;;;;;;16.23;100.00;101910.56;5224532;28;20029;-73
2022/10/02 12:07:54;;;;;;;12.30;6.28;;;;;;;16.29;100.00;101900.88;5279209;28;20496;-72
2022/10/02 12:10:48;;;;;;;20.70;5.38;;;;;;;16.33;100.00;101907.63;5288793;28;20396;-72
2022/10/02 12:13:27;;;;;;;14.75;7.28;;;;;;;16.48;100.00;101911.25;5276659;28;20480;-73
2022/10/02 12:16:19;;;;;;;12.38;5.65;;;;;;;16.53;100.00;101903.44;5275443;28;20031;-72
2022/10/02 12:19:18;;;;;;;11.07;5.13;;;;;;;16.53;100.00;101903.44;5276895;28;20405;-72
2022/10/02 12:28:41;;;;;;;15.75;8.07;;;;;;;16.57;100.00;101899.34;5263363;28;20032;-72
2022/10/02 12:31:27;;;;;;;20.50;7.68;;;;;;;16.51;100.00;101910.03;5267328;28;20497;-73
2022/10/02 12:34:27;;;;;;;10.48;4.68;;;;;;;16.42;100.00;101911.97;5281094;28;20038;-72
2022/10/02 12:37:35;;;;;;;17.58;11.55;;;;;;;16.48;100.00;101908.56;5258900;28;20036;-72
2022/10/02 12:40:12;;;;;;;14.60;7.10;;;;;;;16.55;100.00;101914.09;5287875;28;20392;-73
2022/10/02 12:42:50;;;;;;;17.25;6.35;;;;;;;16.61;100.00;101918.78;5279391;28;20085;-72
2022/10/02 12:45:46;;;;;;;13.55;5.88;;;;;;;16.64;100.00;101923.00;5283058;28;20370;-72
2022/10/02 12:48:44;;;;;;;19.00;7.32;;;;;;;16.58;100.00;101930.84;5287703;28;20061;-72
2022/10/02 12:51:26;;;;;;;20.15;6.32;;;;;;;16.61;100.00;101928.78;5274944;28;20075;-73